Flight Track Log - Related Links

Times and Time Zones

All times are in EDT time to prevent confusion due to time zone crossing. See the EJA370 flight status page for this flight to view local times or setup timezone preferences in your user account.

Time Position Orientation Groundspeed Altitude Reporting Facility
EDT Latitude Longitude Course Direction KTS MPH feet Rate Location/Type
Thu 10:12:03 PM 41.8000 -87.7167 91° East 182 209 2,800  Level Chicago TRACON
Thu 10:13:09 PM 41.8000 -87.6333 90° East 206 237 3,000 103 Climbing Chicago TRACON
Thu 10:14:00 PM 41.8106 -87.5706 77° East 199 229 3,000 1,858 Level Chicago Center
Thu 10:15:02 PM 41.8136 -87.4958 87° East 202 232 6,500 4,146 Climbing Chicago Center
Thu 10:16:03 PM 41.7992 -87.3906 100° East 267 307 11,500 4,377 Climbing Chicago Center
Thu 10:17:00 PM 41.7858 -87.7284 91° East  Level Estimated
Thu 10:17:04 PM 41.7869 -87.2783 98° East 294 338 15,400  Level Chicago Center
Thu 10:18:06 PM 41.7928 -87.1464 87° East 345 397 18,000 2,683 Climbing Chicago Center
Thu 10:19:07 PM 41.8081 -86.9725 83° East 386 444 20,900 2,607 Climbing Chicago Center
Thu 10:20:08 PM 41.8208 -86.8178 84° East 411 473 23,300 2,195 Climbing Chicago Center
Thu 10:21:10 PM 41.8331 -86.6836 83° East 424 488 25,400 2,439 Climbing Chicago Center
Thu 10:22:11 PM 41.8494 -86.4850 84° East 443 510 28,300 2,459 Climbing Chicago Center
Thu 10:23:12 PM 41.8650 -86.3192 83° East 446 513 30,400 2,000 Climbing Chicago Center
Thu 10:24:14 PM 41.8794 -86.1508 83° East 452 520 32,400 1,268 Climbing Chicago Center
Thu 10:25:15 PM 41.8925 -85.9794 84° East 458 527 33,000 829 Climbing Chicago Center
Thu 10:26:17 PM 41.9075 -85.7978 84° East 480 552 34,100 1,512 Climbing Chicago Center
Thu 10:27:18 PM 41.9225 -85.6222 83° East 475 547 36,100 1,967 Climbing Chicago Center
Thu 10:28:19 PM 41.9364 -85.4508 84° East 461 531 38,100 1,902 Climbing Chicago Center
Thu 10:29:21 PM 41.9478 -85.2844 85° East 446 513 40,000 1,415 Climbing Chicago Center
Thu 10:30:22 PM 41.9519 -85.1189 88° East 441 507 41,000 492 Climbing Chicago Center
Thu 10:31:23 PM 41.9497 -84.9500 91° East 448 516 41,000  Level Chicago Center
Thu 10:32:25 PM 41.9494 -84.7781 90° East 458 527 41,000  Level Chicago Center
Thu 10:33:26 PM 41.9483 -84.6094 90° East 455 524 41,000  Level Chicago Center
Thu 10:34:28 PM 41.9464 -84.4106 91° East 446 513 41,000  Level Chicago Center
Thu 10:35:29 PM 41.9447 -84.2433 91° East 448 516 41,000  Level Chicago Center
Thu 10:36:30 PM 41.9436 -84.0761 90° East 448 516 41,000  Level Chicago Center
Thu 10:37:33 PM 41.9372 -83.8967 93° East 446 513 41,000  Level Cleveland Center
Thu 10:38:33 PM 41.9375 -83.7292 90° East 446 513 41,000  Level Cleveland Center
Thu 10:39:33 PM 41.9317 -83.5586 93° East 446 513 41,000  Level Cleveland Center
Thu 10:40:33 PM 41.9339 -83.3911 89° East 446 513 41,000  Level Cleveland Center
Thu 10:41:33 PM 41.9314 -83.2375 91° East 446 513 41,000  Level Cleveland Center
Thu 10:42:33 PM 41.9292 -83.0533 91° East 446 513 41,000  Level Cleveland Center
Thu 10:43:33 PM 41.9283 -82.8886 90° East 446 513 41,000  Level Cleveland Center
Thu 10:44:33 PM 41.9275 -82.7211 90° East 441 507 41,000  Level Cleveland Center
Thu 10:45:33 PM 41.9261 -82.5592 91° East 441 507 41,000  Level Cleveland Center
Thu 10:46:33 PM 41.9247 -82.3917 91° East 441 507 41,000  Level Cleveland Center
Thu 10:47:33 PM 41.9211 -82.2214 92° East 441 507 41,000  Level Cleveland Center
Thu 10:48:33 PM 41.9192 -82.0508 91° East 441 507 41,000  Level Cleveland Center
Thu 10:49:33 PM 41.9172 -81.8806 91° East 452 520 41,000  Level Cleveland Center
Thu 10:50:33 PM 41.9294 -81.7136 84° East 452 520 41,000  Level Cleveland Center
Thu 10:51:33 PM 41.9497 -81.5436 81° East 457 526 41,000  Level Cleveland Center
Thu 10:52:33 PM 41.9675 -81.3761 82° East 457 526 41,000  Level Cleveland Center
Thu 10:53:33 PM 41.9853 -81.2089 82° East 462 532 41,000  Level Cleveland Center
Thu 10:54:32 PM 42.0006 -81.0608 82° East 462 532 41,000  Level Cleveland Center
Thu 10:55:33 PM 42.0200 -80.8906 81° East 462 532 41,000  Level Cleveland Center
Thu 10:56:33 PM 42.0350 -80.7231 83° East 457 526 41,000  Level Cleveland Center
Thu 10:57:32 PM 42.0539 -80.5581 81° East 451 519 41,000  Level Cleveland Center
Thu 10:58:32 PM 42.0683 -80.3958 83° East 444 511 41,000  Level Cleveland Center
Thu 10:59:32 PM 42.0867 -80.2278 82° East 444 511 41,000  Level Cleveland Center
Thu 11:00:33 PM 42.1025 -80.0431 83° East 451 519 41,000  Level Cleveland Center
Thu 11:01:33 PM 42.1203 -79.8778 82° East 451 519 41,000  Level Cleveland Center
Thu 11:02:33 PM 42.1214 -79.7069 89° East 451 519 41,000  Level Cleveland Center
Thu 11:03:33 PM 42.0969 -79.5311 101° East 453 521 41,000  Level Cleveland Center
Thu 11:04:33 PM 42.0744 -79.3581 100° East 466 536 41,000  Level Cleveland Center
Thu 11:05:33 PM 42.0494 -79.1822 101° East 472 543 41,000 -650 Level Cleveland Center
Thu 11:06:33 PM 42.0264 -79.0039 100° East 472 543 39,700 -1,450 Descending Cleveland Center
Thu 11:07:33 PM 42.0006 -78.8200 101° East 485 558 38,100 -850 Descending Cleveland Center
Thu 11:08:33 PM 41.9769 -78.6419 100° East 490 564 38,000 -150 Descending Cleveland Center
Thu 11:09:33 PM 41.9508 -78.4642 101° East 484 557 37,800 -800 Descending Cleveland Center
Thu 11:10:33 PM 41.9267 -78.2861 100° East 484 557 36,400 -1,400 Descending Cleveland Center
Thu 11:11:33 PM 41.8997 -78.1003 101° East 489 563 35,000 -712 Descending Cleveland Center
Thu 11:12:31 PM 41.8744 -77.9297 101° East 493 567 35,000  Level New York Center
Thu 11:13:28 PM 41.8444 -77.7678 104° East 481 554 35,000  Level New York Center
Thu 11:14:29 PM 41.7958 -77.5986 111° Southeast 486 559 35,000  Level New York Center
Thu 11:15:30 PM 41.7514 -77.4272 109° East 491 565 35,000 -645 Level New York Center
Thu 11:16:30 PM 41.7031 -77.2472 110° East 502 578 33,700 -1,388 Descending New York Center
Thu 11:17:31 PM 41.6544 -77.0650 110° East 508 585 32,200 -4,810 Descending New York Center
Thu 11:18:31 PM 41.6058 -76.8828 110° East 518 596 24,000 -1,866 Descending New York Center
Thu 11:19:30 PM 41.5544 -76.7006 111° Southeast 523 602 28,500  Climbing New York Center
Thu 11:20:30 PM 41.5069 -76.5244 110° East 516 594 24,000 -1,785 Descending New York Center
Thu 11:21:31 PM 41.4572 -76.3431 110° East 497 572 24,900 -303 Climbing New York Center
Thu 11:22:29 PM 41.4111 -76.1733 110° East 487 560 23,400 -1,538 Descending New York Center
Thu 11:23:28 PM 41.3622 -76.0092 112° Southeast 476 548 21,900 -1,500 Descending New York Center
Thu 11:24:29 PM 41.3169 -75.8508 111° Southeast 460 529 20,400 -1,438 Descending New York Center
Thu 11:25:29 PM 41.2717 -75.6900 110° East 460 529 19,000 -1,800 Descending New York Center
Thu 11:26:29 PM 41.2236 -75.5403 113° Southeast 455 524 16,800 -2,400 Descending New York Center
Thu 11:27:29 PM 41.1828 -75.4161 114° Southeast 421 484 14,200 -2,672 Descending New York Center
Thu 11:28:28 PM 41.1361 -75.2781 114° Southeast 394 453 11,500 -2,430 Descending New York Center
Thu 11:29:30 PM 41.0964 -75.1653 115° Southeast 350 403 9,300 -1,951 Descending New York Center
Thu 11:30:31 PM 41.0628 -75.0639 114° Southeast 313 360 7,500 -1,678 Descending New York Center
Thu 11:31:28 PM 41.0325 -74.9742 114° Southeast 297 342 6,000 -821 Descending New York Center
Thu 11:32:28 PM 40.9928 -74.8617 115° Southeast 297 342 5,900 -800 Descending New York Center
Thu 11:33:28 PM 40.9525 -74.7658 119° Southeast 303 349 4,400 -1,250 Descending New York Center
Thu 11:34:28 PM 40.9075 -74.6725 123° Southeast 303 349 3,400 -700 Descending New York Center
Thu 11:35:28 PM 40.8647 -74.5850 123° Southeast 296 341 3,000 -247 Descending New York Center
Thu 11:36:05 PM 40.8333 -74.5167 121° Southeast 288 331 3,000  Level New York TRACON
Thu 11:37:05 PM 40.8000 -74.4333 118° Southeast 287 330 3,000 -250 Level New York TRACON
Thu 11:38:05 PM 40.7500 -74.3500 128° Southeast 270 311 2,500 -500 Descending New York TRACON
Thu 11:39:05 PM 40.7500 -74.2667 90° East 208 239 2,000 -250 Descending New York TRACON
Thu 11:40:05 PM 40.7500 -74.2000 90° East 193 222 2,000 -250 Level New York TRACON
Thu 11:41:05 PM 40.7833 -74.1667 37° Northeast 175 201 1,500 -474 Descending New York TRACON
Thu 11:41:59 PM 40.8167 -74.1167 49° Northeast 135 155 1,100 -526 Descending New York TRACON
Thu 11:42:59 PM 40.8333 -74.1000 37° Northeast 115 132 500 1,947 Descending New York TRACON
Thu 11:44:30 PM 40.8639 -74.0528 49° Northeast 114 131 6,000 2,200 Climbing New York Center
Thu 11:45:29 PM 40.8856 -74.0264 43° Northeast 114 131 6,000  Level New York Center
Thu 11:46:31 PM 40.9069 -74.0000 43° Northeast 114 131 6,000  Level New York Center
Thu 11:47:28 PM 40.9286 -73.9733 43° Northeast 114 131 6,000  Level New York Center
Thu 11:48:29 PM 40.9331 -73.9683 40° Northeast 114 131 6,000  Level New York Center

Login

Don't have an account? Register now (free) for customized features, flight alerts, and more!